createdAt,value
2024-04-23T00:02:19.334Z,77.10
2024-04-23T00:04:46.118Z,77.40
2024-04-23T00:07:21.794Z,77.40
2024-04-23T00:09:48.552Z,77.50
2024-04-23T00:12:15.351Z,77.60
2024-04-23T00:14:42.173Z,77.60
2024-04-23T00:17:13.359Z,77.70
2024-04-23T00:19:40.158Z,77.80
2024-04-23T00:22:19.748Z,77.80
2024-04-23T00:24:46.512Z,77.90
2024-04-23T00:27:13.259Z,77.90
2024-04-23T00:29:47.390Z,77.90
2024-04-23T00:32:14.218Z,77.80
2024-04-23T00:34:41.011Z,77.80
2024-04-23T00:37:07.791Z,77.80
2024-04-23T00:39:39.438Z,78.00
2024-04-23T00:42:06.199Z,78.20
2024-04-23T00:44:32.992Z,78.20
2024-04-23T00:46:59.929Z,78.40
2024-04-23T00:49:32.510Z,78.50
2024-04-23T00:52:00.008Z,78.70
2024-04-23T00:54:27.792Z,78.80
2024-04-23T00:56:56.800Z,78.80
2024-04-23T00:59:24.714Z,79.00
2024-04-23T01:01:55.115Z,79.20
2024-04-23T01:04:22.060Z,79.40
2024-04-23T01:06:52.892Z,79.30
2024-04-23T01:09:20.337Z,79.30
2024-04-23T01:11:47.620Z,79.50
2024-04-23T01:14:14.705Z,79.60
2024-04-23T01:16:45.504Z,79.80
2024-04-23T01:19:26.256Z,79.90
2024-04-23T01:21:57.333Z,80.20
2024-04-23T01:24:31.794Z,80.30
2024-04-23T01:26:58.743Z,80.50
2024-04-23T01:29:26.804Z,80.60
2024-04-23T01:31:54.376Z,80.80
2024-04-23T01:34:21.207Z,81.00
2024-04-23T01:36:48.975Z,81.10
2024-04-23T01:39:16.622Z,81.30
2024-04-23T01:41:43.723Z,81.50
2024-04-23T01:44:10.704Z,81.80
2024-04-23T01:46:37.620Z,81.80
2024-04-23T01:49:04.702Z,82.00
2024-04-23T01:51:31.662Z,82.20
2024-04-23T01:53:58.403Z,82.60
2024-04-23T01:56:30.663Z,82.90
2024-04-23T01:58:57.542Z,83.10
2024-04-23T02:01:25.350Z,83.30
2024-04-23T02:03:52.908Z,83.40
2024-04-23T02:06:21.048Z,83.80
2024-04-23T02:08:51.507Z,84.10
2024-04-23T02:11:18.512Z,84.60
2024-04-23T02:13:45.421Z,85.20
2024-04-23T02:16:12.186Z,85.50
2024-04-23T02:18:45.189Z,86.30
2024-04-23T02:21:12.497Z,87.30
2024-04-23T02:23:39.720Z,87.60
2024-04-23T02:26:10.325Z,88.00
2024-04-23T02:28:38.054Z,88.00
2024-04-23T02:31:05.147Z,88.10
2024-04-23T02:33:32.276Z,88.20
2024-04-23T02:35:59.288Z,88.30
2024-04-23T02:38:41.438Z,88.70
2024-04-23T02:41:08.263Z,88.90
2024-04-23T02:43:35.212Z,89.30
2024-04-23T02:46:16.792Z,89.30
2024-04-23T02:48:43.604Z,89.30
2024-04-23T02:51:10.322Z,89.40
2024-04-23T02:53:37.090Z,89.70
2024-04-23T02:56:04.231Z,90.00
2024-04-23T02:58:31.149Z,90.10
2024-04-23T03:00:57.930Z,90.40
2024-04-23T03:03:24.736Z,90.80
2024-04-23T03:05:51.469Z,91.20
2024-04-23T03:08:19.415Z,91.40
2024-04-23T03:10:46.366Z,91.50
2024-04-23T03:13:13.147Z,91.80
2024-04-23T03:15:39.860Z,92.20
2024-04-23T03:18:06.820Z,92.40
2024-04-23T03:20:33.697Z,92.60
2024-04-23T03:23:00.658Z,93.10
2024-04-23T03:25:27.583Z,93.40
2024-04-23T03:27:54.378Z,93.70
2024-04-23T03:30:21.121Z,94.00
2024-04-23T03:32:47.972Z,94.20
2024-04-23T03:35:14.825Z,94.20
2024-04-23T03:37:41.595Z,94.20
2024-04-23T03:40:10.235Z,94.40
2024-04-23T03:42:36.949Z,94.40
2024-04-23T03:45:03.965Z,94.30
2024-04-23T03:47:30.783Z,94.10
2024-04-23T03:49:57.758Z,93.90
2024-04-23T03:52:24.539Z,94.00
2024-04-23T03:54:51.259Z,94.30
2024-04-23T03:57:19.778Z,94.40
2024-04-23T03:59:48.012Z,94.50
2024-04-23T04:02:17.360Z,94.40
2024-04-23T04:05:03.170Z,94.80
2024-04-23T04:07:30.084Z,95.20
2024-04-23T04:09:56.991Z,95.60
2024-04-23T04:12:23.744Z,95.90
2024-04-23T04:14:50.552Z,96.10
2024-04-23T04:17:17.511Z,96.40
2024-04-23T04:19:44.346Z,96.40
2024-04-23T04:22:11.139Z,96.40
2024-04-23T04:24:37.937Z,96.50
2024-04-23T04:27:04.875Z,96.60
2024-04-23T04:29:37.515Z,96.70
2024-04-23T04:32:08.985Z,97.10
2024-04-23T04:34:38.503Z,97.30
2024-04-23T04:37:05.351Z,97.40
2024-04-23T04:39:36.759Z,97.30
2024-04-23T04:42:03.725Z,97.20
2024-04-23T04:44:39.883Z,97.20
2024-04-23T04:47:16.177Z,97.20
2024-04-23T04:49:43.049Z,97.30
2024-04-23T04:52:09.834Z,97.20
2024-04-23T04:54:36.633Z,97.80
2024-04-23T04:57:05.991Z,98.50
2024-04-23T04:59:32.836Z,98.80
2024-04-23T05:01:59.704Z,99.60
2024-04-23T05:04:26.683Z,99.90
2024-04-23T05:06:53.629Z,99.90
2024-04-23T05:09:20.400Z,99.90
2024-04-23T05:11:47.213Z,99.90
2024-04-23T05:14:13.970Z,99.90
2024-04-23T05:16:40.831Z,99.90
2024-04-23T05:19:11.172Z,99.70
2024-04-23T05:21:58.152Z,99.20
2024-04-23T05:24:25.041Z,99.00
2024-04-23T05:27:00.829Z,99.20
2024-04-23T05:29:37.432Z,99.30
2024-04-23T05:32:04.567Z,99.30
2024-04-23T05:34:31.419Z,99.30
2024-04-23T05:36:58.217Z,99.40
2024-04-23T05:39:50.396Z,99.60
2024-04-23T05:42:32.419Z,99.40
2024-04-23T05:44:59.285Z,99.00
2024-04-23T05:47:26.200Z,98.60
2024-04-23T05:56:50.479Z,98.00
2024-04-23T05:59:23.431Z,97.40
2024-04-23T06:01:50.245Z,96.70
2024-04-23T06:04:17.822Z,96.40
2024-04-23T06:07:03.192Z,96.10
2024-04-23T06:09:30.245Z,95.40
2024-04-23T06:11:57.293Z,94.80
2024-04-23T06:14:42.773Z,94.40
2024-04-23T06:17:32.098Z,93.20
2024-04-23T06:20:09.468Z,93.00
2024-04-23T06:22:37.540Z,92.50
2024-04-23T06:25:05.577Z,91.80
2024-04-23T06:27:48.032Z,92.10
2024-04-23T06:30:15.393Z,93.30
2024-04-23T06:32:43.055Z,91.00
2024-04-23T06:35:27.259Z,89.70
2024-04-23T06:37:54.016Z,87.50
2024-04-23T06:40:30.098Z,87.00
2024-04-23T06:42:57.052Z,86.10
2024-04-23T06:48:14.171Z,84.80
2024-04-23T06:50:56.826Z,84.80
2024-04-23T06:53:23.734Z,82.70
2024-04-23T06:55:50.587Z,81.80
2024-04-23T06:58:35.860Z,81.70
2024-04-23T07:01:02.830Z,78.80
2024-04-23T07:03:30.300Z,78.20
2024-04-23T07:06:10.043Z,75.90
2024-04-23T07:08:37.030Z,74.70
2024-04-23T07:11:04.055Z,74.60
2024-04-23T07:13:48.965Z,73.90
2024-04-23T07:16:16.526Z,72.30
2024-04-23T07:18:53.650Z,72.20
2024-04-23T07:21:27.098Z,71.60
2024-04-23T07:24:09.234Z,70.40
2024-04-23T07:26:36.103Z,68.70
2024-04-23T07:29:03.092Z,69.30
2024-04-23T07:34:10.488Z,68.10
2024-04-23T07:36:37.283Z,68.10
2024-04-23T07:39:16.759Z,68.20
2024-04-23T07:41:43.720Z,67.80
2024-04-23T07:44:10.862Z,65.50
2024-04-23T07:46:54.355Z,66.60
2024-04-23T07:49:21.210Z,63.80
2024-04-23T07:51:48.148Z,62.90
2024-04-23T07:54:30.377Z,61.90
2024-04-23T07:56:57.184Z,62.70
2024-04-23T07:59:24.050Z,63.40
2024-04-23T08:02:04.217Z,62.10
2024-04-23T08:04:31.140Z,61.10
2024-04-23T08:07:16.052Z,59.60
2024-04-23T08:09:42.953Z,61.20
2024-04-23T08:12:12.957Z,63.00
2024-04-23T08:14:39.698Z,55.20
2024-04-23T08:17:24.953Z,58.60
2024-04-23T08:19:51.740Z,56.50
2024-04-23T08:22:18.485Z,53.10
2024-04-23T08:25:02.169Z,52.80
2024-04-23T08:27:28.972Z,52.20
2024-04-23T08:29:55.711Z,54.30
2024-04-23T08:32:37.149Z,51.20
2024-04-23T08:35:04.581Z,54.50
2024-04-23T08:37:31.424Z,54.10
2024-04-23T08:40:13.376Z,50.30
2024-04-23T08:42:44.709Z,52.10
2024-04-23T08:45:27.095Z,51.90
2024-04-23T08:47:54.609Z,49.40
2024-04-23T08:50:36.105Z,53.30
2024-04-23T08:53:03.905Z,54.20
2024-04-23T08:55:32.068Z,53.70
2024-04-23T08:58:13.041Z,50.50
2024-04-23T09:00:49.073Z,49.30
2024-04-23T09:03:38.666Z,50.40
2024-04-23T09:09:06.722Z,49.00
2024-04-23T09:11:34.304Z,48.50
2024-04-23T09:17:11.056Z,48.80
2024-04-23T09:19:38.445Z,48.40
2024-04-23T09:22:12.695Z,47.60
2024-04-23T09:24:40.217Z,45.40
2024-04-23T09:27:52.871Z,46.90
2024-04-23T09:33:07.841Z,47.80
2024-04-23T09:35:34.857Z,45.10
2024-04-23T09:38:17.155Z,42.40
2024-04-23T09:40:46.992Z,43.40
2024-04-23T09:43:36.544Z,42.20
2024-04-23T09:46:19.674Z,39.40
2024-04-23T09:48:46.553Z,42.20
2024-04-23T09:51:13.434Z,41.70
2024-04-23T09:53:55.367Z,42.00
2024-04-23T09:56:22.243Z,42.50
2024-04-23T09:58:49.244Z,42.80
2024-04-23T10:01:18.917Z,44.20
2024-04-23T10:04:05.306Z,45.00
2024-04-23T10:06:51.255Z,47.70
2024-04-23T10:09:23.030Z,44.80
2024-04-23T10:12:09.672Z,45.10
2024-04-23T10:21:39.476Z,45.20
2024-04-23T10:24:24.622Z,45.10
2024-04-23T10:26:52.840Z,44.50
2024-04-23T10:29:28.251Z,44.50
2024-04-23T10:31:55.388Z,45.20
2024-04-23T10:34:26.365Z,44.00
2024-04-23T10:37:01.893Z,43.40
2024-04-23T10:39:31.197Z,45.20
2024-04-23T10:42:06.084Z,46.20
2024-04-23T10:44:33.697Z,46.20
2024-04-23T10:49:42.151Z,49.20
2024-04-23T10:55:03.943Z,49.10
2024-04-23T10:57:47.791Z,49.00
2024-04-23T11:00:15.079Z,49.50
2024-04-23T11:02:42.071Z,50.40
2024-04-23T11:05:31.284Z,49.70
2024-04-23T11:08:26.495Z,48.10
2024-04-23T11:11:10.960Z,48.40
2024-04-23T11:14:07.546Z,49.00
2024-04-23T11:17:00.136Z,45.70
2024-04-23T11:22:45.361Z,44.10
2024-04-23T11:27:53.861Z,48.10
2024-04-23T11:47:02.008Z,48.30
2024-04-23T11:52:16.812Z,50.70
2024-04-23T11:54:46.220Z,51.00
2024-04-23T12:04:30.377Z,50.50
2024-04-23T12:10:06.036Z,51.40
2024-04-23T12:20:25.766Z,49.40
2024-04-23T12:23:12.296Z,47.00
2024-04-23T12:25:41.208Z,47.00
2024-04-23T12:28:17.697Z,47.10
2024-04-23T12:30:44.617Z,48.30
2024-04-23T12:33:21.010Z,46.70
2024-04-23T12:35:50.272Z,46.20
2024-04-23T12:38:42.052Z,49.40
2024-04-23T12:41:09.048Z,44.90
2024-04-23T12:43:51.283Z,42.40
2024-04-23T12:49:14.242Z,42.10
2024-04-23T13:03:45.217Z,43.40
2024-04-23T13:06:38.422Z,42.80
2024-04-23T13:09:07.687Z,42.10
2024-04-23T13:11:34.839Z,44.30
2024-04-23T13:14:02.009Z,44.80
2024-04-23T13:19:04.715Z,45.50
2024-04-23T13:52:35.320Z,42.00
2024-04-23T14:45:08.629Z,50.70
2024-04-23T14:47:41.849Z,51.60
2024-04-23T14:50:09.089Z,51.40
2024-04-23T14:55:16.614Z,53.40
2024-04-23T14:58:08.529Z,55.40
2024-04-23T15:01:13.995Z,56.40
2024-04-23T15:06:51.461Z,57.10
2024-04-23T15:09:18.499Z,57.50
2024-04-23T15:11:45.312Z,58.10
2024-04-23T15:14:18.809Z,59.20
2024-04-23T15:16:46.034Z,61.40
2024-04-23T15:19:16.088Z,61.90
2024-04-23T15:21:42.808Z,62.60
2024-04-23T15:24:09.560Z,63.70
2024-04-23T15:26:36.286Z,65.40
2024-04-23T15:29:03.092Z,65.00
2024-04-23T15:31:31.111Z,66.10
2024-04-23T15:33:57.946Z,67.40
2024-04-23T15:36:29.577Z,69.60
2024-04-23T15:39:02.292Z,71.50
2024-04-23T15:41:29.044Z,72.80
2024-04-23T15:43:56.067Z,74.40
2024-04-23T15:46:24.486Z,75.20
2024-04-23T15:48:51.382Z,76.00
2024-04-23T15:51:18.787Z,77.30
2024-04-23T15:53:45.682Z,79.70
2024-04-23T15:56:13.211Z,83.00
2024-04-23T15:58:42.407Z,86.00
2024-04-23T16:01:17.870Z,88.40
2024-04-23T16:03:47.405Z,91.70
2024-04-23T16:12:08.325Z,96.50
2024-04-23T16:17:17.469Z,95.20
2024-04-23T16:22:46.416Z,95.00
2024-04-23T16:25:22.311Z,96.20
2024-04-23T16:27:51.284Z,96.70
2024-04-23T16:30:18.414Z,94.70
2024-04-23T16:32:45.319Z,95.90
2024-04-23T16:35:22.266Z,96.70
2024-04-23T16:37:49.262Z,97.60
2024-04-23T16:40:16.129Z,97.70
2024-04-23T16:42:46.421Z,97.20
2024-04-23T16:45:13.213Z,97.70
2024-04-23T16:47:41.509Z,98.30
2024-04-23T16:50:08.413Z,98.80
2024-04-23T16:52:35.194Z,98.60
2024-04-23T16:55:01.985Z,98.80
2024-04-23T16:57:29.932Z,98.40
2024-04-23T16:59:59.255Z,97.80
2024-04-23T17:02:32.392Z,97.40
2024-04-23T17:04:59.883Z,96.20
2024-04-23T17:07:26.944Z,95.70
2024-04-23T17:09:53.741Z,94.20
2024-04-23T17:12:20.522Z,95.30
2024-04-23T17:14:47.345Z,94.40
2024-04-23T17:17:14.175Z,94.20
2024-04-23T17:19:40.986Z,93.90
2024-04-23T17:22:07.772Z,93.90
2024-04-23T17:24:34.561Z,94.00
2024-04-23T17:27:01.318Z,94.90
2024-04-23T17:29:28.212Z,95.50
2024-04-23T17:31:55.273Z,96.30
2024-04-23T17:34:22.062Z,96.50
2024-04-23T17:36:57.184Z,96.50
2024-04-23T17:39:23.980Z,96.10
2024-04-23T17:44:41.132Z,96.90
2024-04-23T17:52:53.037Z,99.10
2024-04-23T18:04:19.118Z,99.90
2024-04-23T18:07:10.389Z,99.90
2024-04-23T18:09:37.277Z,99.90
2024-04-23T18:12:04.224Z,99.90
2024-04-23T18:14:31.288Z,99.90
2024-04-23T18:16:58.108Z,99.90
2024-04-23T18:19:24.907Z,99.90
2024-04-23T18:21:51.689Z,99.90
2024-04-23T18:24:19.369Z,99.90
2024-04-23T18:26:46.152Z,99.90
2024-04-23T18:29:13.132Z,99.90
2024-04-23T18:31:40.082Z,99.90
2024-04-23T18:34:09.056Z,99.90
2024-04-23T18:36:38.136Z,99.90
2024-04-23T18:39:04.941Z,99.90
2024-04-23T18:41:31.748Z,99.90
2024-04-23T18:43:58.504Z,99.90
2024-04-23T18:46:25.270Z,99.90
2024-04-23T18:48:52.097Z,99.90
2024-04-23T18:51:18.986Z,99.90
2024-04-23T18:53:45.843Z,99.90
2024-04-23T18:56:13.501Z,99.90
2024-04-23T18:58:40.724Z,99.90
2024-04-23T19:01:12.236Z,99.90
2024-04-23T19:03:39.761Z,99.90
2024-04-23T19:06:18.256Z,99.90
2024-04-23T19:08:50.615Z,99.90
2024-04-23T19:11:18.871Z,99.90
2024-04-23T19:13:45.763Z,99.90
2024-04-23T19:16:14.175Z,99.90
2024-04-23T19:18:41.858Z,99.90
2024-04-23T19:21:08.703Z,99.90
2024-04-23T19:23:35.748Z,99.90
2024-04-23T19:26:03.195Z,99.90
2024-04-23T19:28:33.938Z,99.90
2024-04-23T19:31:07.052Z,99.90
2024-04-23T19:33:34.015Z,99.90
2024-04-23T19:36:01.035Z,99.90
2024-04-23T19:38:31.042Z,99.90
2024-04-23T19:41:09.327Z,99.90
2024-04-23T19:43:46.458Z,99.90
2024-04-23T19:46:19.514Z,99.90
2024-04-23T19:48:46.360Z,99.90
2024-04-23T19:51:14.315Z,99.90
2024-04-23T19:53:41.216Z,99.90
2024-04-23T19:56:07.993Z,99.90
2024-04-23T19:58:35.417Z,99.90
2024-04-23T20:01:03.054Z,99.90
2024-04-23T20:03:30.357Z,99.90
2024-04-23T20:06:01.335Z,99.90
2024-04-23T20:08:28.190Z,99.90
2024-04-23T20:10:55.458Z,99.90
2024-04-23T20:13:22.394Z,99.90
2024-04-23T20:15:49.678Z,99.90
2024-04-23T20:18:16.649Z,99.90
2024-04-23T20:20:43.473Z,99.90
2024-04-23T20:23:10.481Z,99.90
2024-04-23T20:25:43.607Z,99.90
2024-04-23T20:28:11.396Z,99.90
2024-04-23T20:30:38.165Z,99.90
2024-04-23T20:33:05.237Z,99.90
2024-04-23T20:35:32.024Z,99.90
2024-04-23T20:37:58.979Z,99.90
2024-04-23T20:40:25.862Z,99.90
2024-04-23T20:42:52.613Z,99.90
2024-04-23T20:45:19.379Z,99.90
2024-04-23T20:47:48.598Z,99.90
2024-04-23T20:50:15.580Z,99.90
2024-04-23T20:52:43.793Z,99.90
2024-04-23T20:55:10.658Z,99.90
2024-04-23T20:57:37.600Z,99.90
2024-04-23T21:00:05.000Z,99.90
2024-04-23T21:02:31.915Z,99.90
2024-04-23T21:04:58.759Z,99.90
2024-04-23T21:07:25.710Z,99.90
2024-04-23T21:09:52.446Z,99.90
2024-04-23T21:12:19.119Z,99.90
2024-04-23T21:14:45.813Z,99.90
2024-04-23T21:17:12.624Z,99.90
2024-04-23T21:19:39.387Z,99.90
2024-04-23T21:22:06.195Z,99.90
2024-04-23T21:24:33.001Z,99.90
2024-04-23T21:26:59.736Z,99.90
2024-04-23T21:29:26.491Z,99.90
2024-04-23T21:31:53.359Z,99.90
2024-04-23T21:34:20.128Z,99.90
2024-04-23T21:36:46.818Z,99.90
2024-04-23T21:39:13.542Z,99.90
2024-04-23T21:41:40.281Z,99.90
2024-04-23T21:44:07.031Z,99.90
2024-04-23T21:46:33.728Z,99.90
2024-04-23T21:49:00.629Z,99.90
2024-04-23T21:51:34.999Z,99.90
2024-04-23T21:54:02.601Z,99.90
2024-04-23T21:56:29.362Z,99.90
2024-04-23T21:58:56.068Z,99.90
2024-04-23T22:01:22.799Z,99.90
2024-04-23T22:03:49.557Z,99.90
2024-04-23T22:06:16.340Z,99.90
2024-04-23T22:08:49.124Z,99.90
2024-04-23T22:11:15.961Z,99.90
2024-04-23T22:13:42.731Z,99.90
2024-04-23T22:16:09.515Z,99.90
2024-04-23T22:18:36.340Z,99.90
2024-04-23T22:21:03.223Z,99.90
2024-04-23T22:23:29.969Z,99.90
2024-04-23T22:25:56.771Z,99.90
2024-04-23T22:28:23.459Z,99.90
2024-04-23T22:30:50.180Z,99.90
2024-04-23T22:33:17.076Z,99.90
2024-04-23T22:35:44.110Z,99.90
2024-04-23T22:38:10.889Z,99.90
2024-04-23T22:40:37.971Z,99.90
2024-04-23T22:43:04.765Z,99.90
2024-04-23T22:45:31.681Z,99.90
2024-04-23T22:47:58.424Z,99.90
2024-04-23T22:50:25.241Z,99.90
2024-04-23T22:52:52.178Z,99.90
2024-04-23T22:55:19.097Z,99.90
2024-04-23T22:57:45.754Z,99.90
2024-04-23T23:00:13.063Z,99.90
2024-04-23T23:02:39.905Z,99.90
2024-04-23T23:05:06.878Z,99.90
2024-04-23T23:07:33.629Z,99.90
2024-04-23T23:10:00.542Z,99.90
2024-04-23T23:12:27.238Z,99.90
2024-04-23T23:14:59.958Z,99.90
2024-04-23T23:17:26.710Z,99.90
2024-04-23T23:19:53.456Z,99.90
2024-04-23T23:22:20.207Z,99.90
2024-04-23T23:24:46.982Z,99.90
2024-04-23T23:27:13.719Z,99.90
2024-04-23T23:29:40.396Z,99.90
2024-04-23T23:32:07.195Z,99.90
2024-04-23T23:34:33.918Z,99.90
2024-04-23T23:37:00.599Z,99.90
2024-04-23T23:39:27.286Z,99.90
2024-04-23T23:41:53.995Z,99.90
2024-04-23T23:44:21.200Z,99.90
2024-04-23T23:46:48.096Z,99.90
2024-04-23T23:49:14.959Z,99.90
2024-04-23T23:51:41.737Z,99.90
2024-04-23T23:54:08.651Z,99.90
2024-04-23T23:56:35.363Z,99.90
2024-04-23T23:59:02.123Z,99.90
